sensor_id;sensor_type;location;lat;lon;timestamp;temperature;humidity
20498;DHT22;10407;53.238;10.448;2023-04-28T00:02:19;7.80;99.90
20498;DHT22;10407;53.238;10.448;2023-04-28T00:04:46;7.50;99.90
20498;DHT22;10407;53.238;10.448;2023-04-28T00:07:14;7.60;99.90
20498;DHT22;10407;53.238;10.448;2023-04-28T00:09:41;7.30;99.90
20498;DHT22;10407;53.238;10.448;2023-04-28T00:12:09;7.20;99.90
20498;DHT22;10407;53.238;10.448;2023-04-28T00:14:36;7.30;99.90
20498;DHT22;10407;53.238;10.448;2023-04-28T00:17:04;7.20;99.90
20498;DHT22;10407;53.238;10.448;2023-04-28T00:19:32;7.30;99.90
20498;DHT22;10407;53.238;10.448;2023-04-28T00:22:00;7.30;99.90
20498;DHT22;10407;53.238;10.448;2023-04-28T00:24:27;7.20;99.90
20498;DHT22;10407;53.238;10.448;2023-04-28T00:26:55;7.10;99.90
20498;DHT22;10407;53.238;10.448;2023-04-28T00:29:23;7.30;99.90
20498;DHT22;10407;53.238;10.448;2023-04-28T00:31:51;7.20;99.90
20498;DHT22;10407;53.238;10.448;2023-04-28T00:34:18;7.00;99.90
20498;DHT22;10407;53.238;10.448;2023-04-28T00:36:46;7.00;99.90
20498;DHT22;10407;53.238;10.448;2023-04-28T00:39:15;6.90;99.90
20498;DHT22;10407;53.238;10.448;2023-04-28T00:41:44;7.00;99.90
20498;DHT22;10407;53.238;10.448;2023-04-28T00:44:11;6.90;99.90
20498;DHT22;10407;53.238;10.448;2023-04-28T00:46:39;6.90;99.90
20498;DHT22;10407;53.238;10.448;2023-04-28T00:49:07;6.70;99.90
20498;DHT22;10407;53.238;10.448;2023-04-28T00:51:35;6.70;99.90
20498;DHT22;10407;53.238;10.448;2023-04-28T00:54:04;6.60;99.90
20498;DHT22;10407;53.238;10.448;2023-04-28T00:56:33;6.40;99.90
20498;DHT22;10407;53.238;10.448;2023-04-28T00:59:01;6.30;99.90
20498;DHT22;10407;53.238;10.448;2023-04-28T01:01:29;6.50;99.90
20498;DHT22;10407;53.238;10.448;2023-04-28T01:03:57;6.50;99.90
20498;DHT22;10407;53.238;10.448;2023-04-28T01:06:24;6.30;99.90
20498;DHT22;10407;53.238;10.448;2023-04-28T01:08:55;6.40;99.90
20498;DHT22;10407;53.238;10.448;2023-04-28T01:11:22;6.50;99.90
20498;DHT22;10407;53.238;10.448;2023-04-28T01:13:50;6.40;99.90
20498;DHT22;10407;53.238;10.448;2023-04-28T01:16:18;6.50;99.90
20498;DHT22;10407;53.238;10.448;2023-04-28T01:18:46;6.30;99.90
20498;DHT22;10407;53.238;10.448;2023-04-28T01:21:14;6.20;99.90
20498;DHT22;10407;53.238;10.448;2023-04-28T01:23:45;6.50;99.90
20498;DHT22;10407;53.238;10.448;2023-04-28T01:26:12;6.60;99.90
20498;DHT22;10407;53.238;10.448;2023-04-28T01:28:40;6.50;99.90
20498;DHT22;10407;53.238;10.448;2023-04-28T01:31:07;6.50;99.90
20498;DHT22;10407;53.238;10.448;2023-04-28T01:33:35;6.30;99.90
20498;DHT22;10407;53.238;10.448;2023-04-28T01:36:02;6.50;99.90
20498;DHT22;10407;53.238;10.448;2023-04-28T01:38:30;6.30;99.90
20498;DHT22;10407;53.238;10.448;2023-04-28T01:40:58;6.30;99.90
20498;DHT22;10407;53.238;10.448;2023-04-28T01:43:28;6.20;99.90
20498;DHT22;10407;53.238;10.448;2023-04-28T01:45:56;6.20;99.90
20498;DHT22;10407;53.238;10.448;2023-04-28T01:48:23;6.30;99.90
20498;DHT22;10407;53.238;10.448;2023-04-28T01:50:51;5.80;99.90
20498;DHT22;10407;53.238;10.448;2023-04-28T01:53:18;6.00;99.90
20498;DHT22;10407;53.238;10.448;2023-04-28T01:55:46;6.10;99.90
20498;DHT22;10407;53.238;10.448;2023-04-28T01:58:13;5.90;99.90
20498;DHT22;10407;53.238;10.448;2023-04-28T02:00:41;5.80;99.90
20498;DHT22;10407;53.238;10.448;2023-04-28T02:03:08;5.80;99.90
20498;DHT22;10407;53.238;10.448;2023-04-28T02:05:36;5.80;99.90
20498;DHT22;10407;53.238;10.448;2023-04-28T02:08:04;5.80;99.90
20498;DHT22;10407;53.238;10.448;2023-04-28T02:10:31;5.80;99.90
20498;DHT22;10407;53.238;10.448;2023-04-28T02:12:59;5.80;99.90
20498;DHT22;10407;53.238;10.448;2023-04-28T02:15:26;5.70;99.90
20498;DHT22;10407;53.238;10.448;2023-04-28T02:17:54;5.60;99.90
20498;DHT22;10407;53.238;10.448;2023-04-28T02:20:21;5.50;99.90
20498;DHT22;10407;53.238;10.448;2023-04-28T02:22:49;5.60;99.90
20498;DHT22;10407;53.238;10.448;2023-04-28T02:25:16;5.60;99.90
20498;DHT22;10407;53.238;10.448;2023-04-28T02:27:44;5.50;99.90
20498;DHT22;10407;53.238;10.448;2023-04-28T02:30:12;5.30;99.90
20498;DHT22;10407;53.238;10.448;2023-04-28T02:32:39;5.30;99.90
20498;DHT22;10407;53.238;10.448;2023-04-28T02:35:07;5.40;99.90
20498;DHT22;10407;53.238;10.448;2023-04-28T02:37:35;5.40;99.90
20498;DHT22;10407;53.238;10.448;2023-04-28T02:40:02;5.30;99.90
20498;DHT22;10407;53.238;10.448;2023-04-28T02:42:30;5.30;99.90
20498;DHT22;10407;53.238;10.448;2023-04-28T02:44:57;5.30;99.90
20498;DHT22;10407;53.238;10.448;2023-04-28T02:47:25;5.30;99.90
20498;DHT22;10407;53.238;10.448;2023-04-28T02:49:52;5.20;99.90
20498;DHT22;10407;53.238;10.448;2023-04-28T02:52:20;5.10;99.90
20498;DHT22;10407;53.238;10.448;2023-04-28T02:54:47;5.10;99.90
20498;DHT22;10407;53.238;10.448;2023-04-28T02:57:19;5.20;99.90
20498;DHT22;10407;53.238;10.448;2023-04-28T02:59:47;5.20;99.90
20498;DHT22;10407;53.238;10.448;2023-04-28T03:02:14;5.20;99.90
20498;DHT22;10407;53.238;10.448;2023-04-28T03:05:01;5.20;99.90
20498;DHT22;10407;53.238;10.448;2023-04-28T03:07:29;5.10;99.90
20498;DHT22;10407;53.238;10.448;2023-04-28T03:09:56;4.90;99.90
20498;DHT22;10407;53.238;10.448;2023-04-28T03:12:24;4.80;99.90
20498;DHT22;10407;53.238;10.448;2023-04-28T03:14:51;4.70;99.90
20498;DHT22;10407;53.238;10.448;2023-04-28T03:17:19;4.70;99.90
20498;DHT22;10407;53.238;10.448;2023-04-28T03:19:46;4.90;99.90
20498;DHT22;10407;53.238;10.448;2023-04-28T03:22:14;5.00;99.90
20498;DHT22;10407;53.238;10.448;2023-04-28T03:24:41;4.90;99.90
20498;DHT22;10407;53.238;10.448;2023-04-28T03:27:09;4.80;99.90
20498;DHT22;10407;53.238;10.448;2023-04-28T03:29:37;4.70;99.90
20498;DHT22;10407;53.238;10.448;2023-04-28T03:32:04;4.80;99.90
20498;DHT22;10407;53.238;10.448;2023-04-28T03:34:32;4.70;99.90
20498;DHT22;10407;53.238;10.448;2023-04-28T03:37:00;4.50;99.90
20498;DHT22;10407;53.238;10.448;2023-04-28T03:39:27;4.70;99.90
20498;DHT22;10407;53.238;10.448;2023-04-28T03:41:55;4.70;99.90
20498;DHT22;10407;53.238;10.448;2023-04-28T03:44:22;4.70;99.90
20498;DHT22;10407;53.238;10.448;2023-04-28T03:46:50;4.80;99.90
20498;DHT22;10407;53.238;10.448;2023-04-28T03:49:17;4.70;99.90
20498;DHT22;10407;53.238;10.448;2023-04-28T03:51:45;4.80;99.90
20498;DHT22;10407;53.238;10.448;2023-04-28T03:54:13;4.80;99.90
20498;DHT22;10407;53.238;10.448;2023-04-28T03:56:41;4.80;99.90
20498;DHT22;10407;53.238;10.448;2023-04-28T03:59:09;4.80;99.90
20498;DHT22;10407;53.238;10.448;2023-04-28T04:01:37;5.00;99.90
20498;DHT22;10407;53.238;10.448;2023-04-28T04:04:05;5.50;99.90
20498;DHT22;10407;53.238;10.448;2023-04-28T04:06:32;5.50;99.90
20498;DHT22;10407;53.238;10.448;2023-04-28T04:09:00;5.50;99.90
20498;DHT22;10407;53.238;10.448;2023-04-28T04:11:28;5.70;99.90
20498;DHT22;10407;53.238;10.448;2023-04-28T04:13:55;5.70;99.90
20498;DHT22;10407;53.238;10.448;2023-04-28T04:16:23;5.80;99.90
20498;DHT22;10407;53.238;10.448;2023-04-28T04:18:51;5.90;99.90
20498;DHT22;10407;53.238;10.448;2023-04-28T04:21:18;6.10;99.90
20498;DHT22;10407;53.238;10.448;2023-04-28T04:23:46;6.30;99.90
20498;DHT22;10407;53.238;10.448;2023-04-28T04:26:14;6.30;99.90
20498;DHT22;10407;53.238;10.448;2023-04-28T04:28:41;6.30;99.90
20498;DHT22;10407;53.238;10.448;2023-04-28T04:31:09;6.20;99.90
20498;DHT22;10407;53.238;10.448;2023-04-28T04:33:36;6.70;99.90
20498;DHT22;10407;53.238;10.448;2023-04-28T04:36:04;7.90;99.90
20498;DHT22;10407;53.238;10.448;2023-04-28T04:38:32;9.30;95.00
20498;DHT22;10407;53.238;10.448;2023-04-28T04:41:00;10.00;84.90
20498;DHT22;10407;53.238;10.448;2023-04-28T04:43:27;10.50;78.40
20498;DHT22;10407;53.238;10.448;2023-04-28T04:45:55;11.20;67.30
20498;DHT22;10407;53.238;10.448;2023-04-28T04:48:22;11.00;66.00
20498;DHT22;10407;53.238;10.448;2023-04-28T04:50:50;10.10;68.10
20498;DHT22;10407;53.238;10.448;2023-04-28T04:53:18;10.20;70.50
20498;DHT22;10407;53.238;10.448;2023-04-28T04:55:45;10.40;66.00
20498;DHT22;10407;53.238;10.448;2023-04-28T04:58:13;11.30;61.30
20498;DHT22;10407;53.238;10.448;2023-04-28T05:00:40;12.60;53.00
20498;DHT22;10407;53.238;10.448;2023-04-28T05:03:08;12.70;47.20
20498;DHT22;10407;53.238;10.448;2023-04-28T05:05:35;12.40;44.20
20498;DHT22;10407;53.238;10.448;2023-04-28T05:08:03;12.00;45.60
20498;DHT22;10407;53.238;10.448;2023-04-28T05:10:31;12.90;45.90
20498;DHT22;10407;53.238;10.448;2023-04-28T05:12:59;14.20;38.50
20498;DHT22;10407;53.238;10.448;2023-04-28T05:15:27;14.70;31.20
20498;DHT22;10407;53.238;10.448;2023-04-28T05:17:55;13.50;31.00
20498;DHT22;10407;53.238;10.448;2023-04-28T05:20:23;13.50;30.80
20498;DHT22;10407;53.238;10.448;2023-04-28T05:22:51;12.50;34.00
20498;DHT22;10407;53.238;10.448;2023-04-28T05:25:18;13.50;33.90
20498;DHT22;10407;53.238;10.448;2023-04-28T05:27:46;13.20;29.80
20498;DHT22;10407;53.238;10.448;2023-04-28T05:30:13;14.00;28.20
20498;DHT22;10407;53.238;10.448;2023-04-28T05:32:41;14.90;24.30
20498;DHT22;10407;53.238;10.448;2023-04-28T05:35:08;14.90;22.30
20498;DHT22;10407;53.238;10.448;2023-04-28T05:37:37;15.40;21.30
20498;DHT22;10407;53.238;10.448;2023-04-28T05:40:06;15.10;21.00
20498;DHT22;10407;53.238;10.448;2023-04-28T05:42:34;13.30;22.00
20498;DHT22;10407;53.238;10.448;2023-04-28T05:45:02;14.50;21.50
20498;DHT22;10407;53.238;10.448;2023-04-28T05:47:29;13.70;21.70
20498;DHT22;10407;53.238;10.448;2023-04-28T05:49:57;13.70;22.80
20498;DHT22;10407;53.238;10.448;2023-04-28T05:52:25;13.70;24.30
20498;DHT22;10407;53.238;10.448;2023-04-28T05:54:52;14.50;21.60
20498;DHT22;10407;53.238;10.448;2023-04-28T05:57:20;12.90;22.40
20498;DHT22;10407;53.238;10.448;2023-04-28T05:59:47;12.80;23.20
20498;DHT22;10407;53.238;10.448;2023-04-28T06:02:15;12.60;24.80
20498;DHT22;10407;53.238;10.448;2023-04-28T06:04:42;13.90;23.20
20498;DHT22;10407;53.238;10.448;2023-04-28T06:07:10;14.50;21.20
20498;DHT22;10407;53.238;10.448;2023-04-28T06:09:37;14.70;20.20
20498;DHT22;10407;53.238;10.448;2023-04-28T06:12:06;14.00;20.20
20498;DHT22;10407;53.238;10.448;2023-04-28T06:14:33;14.30;20.20
20498;DHT22;10407;53.238;10.448;2023-04-28T06:17:03;14.70;19.30
20498;DHT22;10407;53.238;10.448;2023-04-28T06:19:31;14.20;19.70
20498;DHT22;10407;53.238;10.448;2023-04-28T06:21:59;14.30;19.10
20498;DHT22;10407;53.238;10.448;2023-04-28T06:24:26;13.60;19.30
20498;DHT22;10407;53.238;10.448;2023-04-28T06:26:54;13.10;19.80
20498;DHT22;10407;53.238;10.448;2023-04-28T06:29:21;14.70;20.30
20498;DHT22;10407;53.238;10.448;2023-04-28T06:31:49;14.80;17.90
20498;DHT22;10407;53.238;10.448;2023-04-28T06:34:17;14.50;20.10
20498;DHT22;10407;53.238;10.448;2023-04-28T06:36:45;14.20;20.20
20498;DHT22;10407;53.238;10.448;2023-04-28T06:39:13;12.80;23.20
20498;DHT22;10407;53.238;10.448;2023-04-28T06:41:41;12.50;23.60
20498;DHT22;10407;53.238;10.448;2023-04-28T06:44:09;12.40;26.40
20498;DHT22;10407;53.238;10.448;2023-04-28T06:46:36;12.50;25.20
20498;DHT22;10407;53.238;10.448;2023-04-28T06:49:04;12.60;26.90
20498;DHT22;10407;53.238;10.448;2023-04-28T06:51:31;13.50;25.80
20498;DHT22;10407;53.238;10.448;2023-04-28T06:53:59;13.20;26.20
20498;DHT22;10407;53.238;10.448;2023-04-28T06:56:27;13.40;26.50
20498;DHT22;10407;53.238;10.448;2023-04-28T06:58:55;13.30;24.00
20498;DHT22;10407;53.238;10.448;2023-04-28T07:01:26;12.80;26.50
20498;DHT22;10407;53.238;10.448;2023-04-28T07:03:53;12.90;26.20
20498;DHT22;10407;53.238;10.448;2023-04-28T07:06:21;13.20;26.90
20498;DHT22;10407;53.238;10.448;2023-04-28T07:08:48;13.20;26.30
20498;DHT22;10407;53.238;10.448;2023-04-28T07:11:17;12.70;28.80
20498;DHT22;10407;53.238;10.448;2023-04-28T07:13:44;13.20;28.30
20498;DHT22;10407;53.238;10.448;2023-04-28T07:16:13;13.80;26.00
20498;DHT22;10407;53.238;10.448;2023-04-28T07:18:41;14.30;23.20
20498;DHT22;10407;53.238;10.448;2023-04-28T07:21:09;14.50;22.80
20498;DHT22;10407;53.238;10.448;2023-04-28T07:23:36;14.50;23.10
20498;DHT22;10407;53.238;10.448;2023-04-28T07:26:06;14.00;22.50
20498;DHT22;10407;53.238;10.448;2023-04-28T07:28:33;14.20;22.70
20498;DHT22;10407;53.238;10.448;2023-04-28T07:31:01;14.70;21.80
20498;DHT22;10407;53.238;10.448;2023-04-28T07:33:28;14.80;20.90
20498;DHT22;10407;53.238;10.448;2023-04-28T07:35:56;14.50;21.60
20498;DHT22;10407;53.238;10.448;2023-04-28T07:38:23;14.50;21.20
20498;DHT22;10407;53.238;10.448;2023-04-28T07:40:51;13.90;20.50
20498;DHT22;10407;53.238;10.448;2023-04-28T07:43:18;13.80;20.60
20498;DHT22;10407;53.238;10.448;2023-04-28T07:45:46;13.50;21.60
20498;DHT22;10407;53.238;10.448;2023-04-28T07:48:15;13.20;20.80
20498;DHT22;10407;53.238;10.448;2023-04-28T07:50:42;13.40;20.20
20498;DHT22;10407;53.238;10.448;2023-04-28T07:53:10;13.30;20.60
20498;DHT22;10407;53.238;10.448;2023-04-28T07:55:37;13.40;22.00
20498;DHT22;10407;53.238;10.448;2023-04-28T07:58:07;13.80;21.10
20498;DHT22;10407;53.238;10.448;2023-04-28T08:00:35;13.50;20.70
20498;DHT22;10407;53.238;10.448;2023-04-28T08:03:03;13.50;21.30
20498;DHT22;10407;53.238;10.448;2023-04-28T08:05:30;13.80;21.30
20498;DHT22;10407;53.238;10.448;2023-04-28T08:07:58;13.60;21.30
20498;DHT22;10407;53.238;10.448;2023-04-28T08:10:27;14.00;21.20
20498;DHT22;10407;53.238;10.448;2023-04-28T08:12:55;14.00;20.00
20498;DHT22;10407;53.238;10.448;2023-04-28T08:15:22;13.90;21.00
20498;DHT22;10407;53.238;10.448;2023-04-28T08:17:51;13.60;20.10
20498;DHT22;10407;53.238;10.448;2023-04-28T08:20:18;13.20;19.20
20498;DHT22;10407;53.238;10.448;2023-04-28T08:22:46;13.40;19.80
20498;DHT22;10407;53.238;10.448;2023-04-28T08:25:14;13.40;19.30
20498;DHT22;10407;53.238;10.448;2023-04-28T08:27:41;13.70;19.80
20498;DHT22;10407;53.238;10.448;2023-04-28T08:30:09;13.50;19.00
20498;DHT22;10407;53.238;10.448;2023-04-28T08:32:36;13.70;19.00
20498;DHT22;10407;53.238;10.448;2023-04-28T08:35:04;14.20;19.40
20498;DHT22;10407;53.238;10.448;2023-04-28T08:37:32;14.00;18.40
20498;DHT22;10407;53.238;10.448;2023-04-28T08:40:01;13.80;18.90
20498;DHT22;10407;53.238;10.448;2023-04-28T08:42:31;14.10;19.80
20498;DHT22;10407;53.238;10.448;2023-04-28T08:44:59;14.10;19.10
20498;DHT22;10407;53.238;10.448;2023-04-28T08:47:37;13.70;19.80
20498;DHT22;10407;53.238;10.448;2023-04-28T08:50:07;14.00;19.50
20498;DHT22;10407;53.238;10.448;2023-04-28T08:52:35;13.90;19.20
20498;DHT22;10407;53.238;10.448;2023-04-28T08:55:08;13.90;18.80
20498;DHT22;10407;53.238;10.448;2023-04-28T08:57:44;13.80;18.70
20498;DHT22;10407;53.238;10.448;2023-04-28T09:00:12;13.60;18.70
20498;DHT22;10407;53.238;10.448;2023-04-28T09:02:40;13.20;19.80
20498;DHT22;10407;53.238;10.448;2023-04-28T09:05:09;13.40;20.00
20498;DHT22;10407;53.238;10.448;2023-04-28T09:07:37;13.60;19.40
20498;DHT22;10407;53.238;10.448;2023-04-28T09:10:18;13.60;18.90
20498;DHT22;10407;53.238;10.448;2023-04-28T09:12:47;13.60;20.30
20498;DHT22;10407;53.238;10.448;2023-04-28T09:15:39;13.70;20.50
20498;DHT22;10407;53.238;10.448;2023-04-28T09:18:04;13.60;20.10
20498;DHT22;10407;53.238;10.448;2023-04-28T09:20:33;13.80;20.90
20498;DHT22;10407;53.238;10.448;2023-04-28T09:23:18;14.20;20.30
20498;DHT22;10407;53.238;10.448;2023-04-28T09:26:07;14.00;20.70
20498;DHT22;10407;53.238;10.448;2023-04-28T09:28:32;14.30;19.40
20498;DHT22;10407;53.238;10.448;2023-04-28T09:31:01;13.90;19.70
20498;DHT22;10407;53.238;10.448;2023-04-28T09:33:29;13.90;19.70
20498;DHT22;10407;53.238;10.448;2023-04-28T09:35:57;14.40;19.90
20498;DHT22;10407;53.238;10.448;2023-04-28T09:38:24;14.10;18.80
20498;DHT22;10407;53.238;10.448;2023-04-28T09:41:00;14.20;18.80
20498;DHT22;10407;53.238;10.448;2023-04-28T09:43:30;14.20;19.50
20498;DHT22;10407;53.238;10.448;2023-04-28T09:46:03;14.20;19.20
20498;DHT22;10407;53.238;10.448;2023-04-28T09:48:37;14.20;19.00
20498;DHT22;10407;53.238;10.448;2023-04-28T09:51:03;14.20;20.20
20498;DHT22;10407;53.238;10.448;2023-04-28T09:53:32;14.50;20.40
20498;DHT22;10407;53.238;10.448;2023-04-28T09:56:02;14.60;20.40
20498;DHT22;10407;53.238;10.448;2023-04-28T09:58:33;14.50;20.20
20498;DHT22;10407;53.238;10.448;2023-04-28T10:01:04;14.60;20.30
20498;DHT22;10407;53.238;10.448;2023-04-28T10:03:33;14.60;19.70
20498;DHT22;10407;53.238;10.448;2023-04-28T10:06:01;14.60;20.10
20498;DHT22;10407;53.238;10.448;2023-04-28T10:08:29;14.40;20.00
20498;DHT22;10407;53.238;10.448;2023-04-28T10:10:57;14.90;20.60
20498;DHT22;10407;53.238;10.448;2023-04-28T10:13:24;15.50;20.50
20498;DHT22;10407;53.238;10.448;2023-04-28T10:15:52;14.60;19.20
20498;DHT22;10407;53.238;10.448;2023-04-28T10:18:22;14.70;21.20
20498;DHT22;10407;53.238;10.448;2023-04-28T10:20:52;15.30;21.00
20498;DHT22;10407;53.238;10.448;2023-04-28T10:23:54;15.10;20.30
20498;DHT22;10407;53.238;10.448;2023-04-28T10:26:19;15.00;20.00
20498;DHT22;10407;53.238;10.448;2023-04-28T10:28:50;14.90;20.90
20498;DHT22;10407;53.238;10.448;2023-04-28T10:31:20;15.00;20.50
20498;DHT22;10407;53.238;10.448;2023-04-28T10:33:48;14.60;21.90
20498;DHT22;10407;53.238;10.448;2023-04-28T10:36:50;15.10;22.60
20498;DHT22;10407;53.238;10.448;2023-04-28T10:39:20;15.20;21.10
20498;DHT22;10407;53.238;10.448;2023-04-28T10:41:47;15.40;20.60
20498;DHT22;10407;53.238;10.448;2023-04-28T10:47:04;15.10;21.20
20498;DHT22;10407;53.238;10.448;2023-04-28T11:00:46;14.40;22.20
20498;DHT22;10407;53.238;10.448;2023-04-28T11:04:06;14.70;24.00
20498;DHT22;10407;53.238;10.448;2023-04-28T11:06:24;15.00;22.60
20498;DHT22;10407;53.238;10.448;2023-04-28T11:08:53;14.70;22.20
20498;DHT22;10407;53.238;10.448;2023-04-28T11:11:23;14.90;22.20
20498;DHT22;10407;53.238;10.448;2023-04-28T11:13:52;14.90;23.00
20498;DHT22;10407;53.238;10.448;2023-04-28T11:16:22;15.10;22.60
20498;DHT22;10407;53.238;10.448;2023-04-28T11:18:53;15.20;22.80
20498;DHT22;10407;53.238;10.448;2023-04-28T11:21:22;15.00;23.20
20498;DHT22;10407;53.238;10.448;2023-04-28T11:23:51;15.10;22.70
20498;DHT22;10407;53.238;10.448;2023-04-28T11:26:19;14.90;22.90
20498;DHT22;10407;53.238;10.448;2023-04-28T11:28:54;14.80;23.40
20498;DHT22;10407;53.238;10.448;2023-04-28T11:31:23;14.60;24.50
20498;DHT22;10407;53.238;10.448;2023-04-28T11:34:02;15.10;23.60
20498;DHT22;10407;53.238;10.448;2023-04-28T11:36:35;15.40;23.30
20498;DHT22;10407;53.238;10.448;2023-04-28T11:39:05;15.20;24.60
20498;DHT22;10407;53.238;10.448;2023-04-28T11:41:35;15.10;23.60
20498;DHT22;10407;53.238;10.448;2023-04-28T11:44:13;15.10;25.80
20498;DHT22;10407;53.238;10.448;2023-04-28T11:46:50;15.50;24.80
20498;DHT22;10407;53.238;10.448;2023-04-28T11:49:20;15.80;24.60
20498;DHT22;10407;53.238;10.448;2023-04-28T11:51:48;15.60;23.10
20498;DHT22;10407;53.238;10.448;2023-04-28T11:54:23;15.20;24.90
20498;DHT22;10407;53.238;10.448;2023-04-28T11:56:53;15.60;24.10
20498;DHT22;10407;53.238;10.448;2023-04-28T11:59:28;15.90;23.70
20498;DHT22;10407;53.238;10.448;2023-04-28T12:01:59;15.70;22.60
20498;DHT22;10407;53.238;10.448;2023-04-28T12:07:17;15.60;23.50
20498;DHT22;10407;53.238;10.448;2023-04-28T12:09:47;16.00;23.80
20498;DHT22;10407;53.238;10.448;2023-04-28T12:12:29;15.70;23.50
20498;DHT22;10407;53.238;10.448;2023-04-28T12:15:05;16.10;23.10
20498;DHT22;10407;53.238;10.448;2023-04-28T12:17:38;16.10;24.50
20498;DHT22;10407;53.238;10.448;2023-04-28T12:20:08;15.80;24.20
20498;DHT22;10407;53.238;10.448;2023-04-28T12:22:48;16.00;23.70
20498;DHT22;10407;53.238;10.448;2023-04-28T12:25:18;16.10;23.80
20498;DHT22;10407;53.238;10.448;2023-04-28T12:28:02;16.20;23.60
20498;DHT22;10407;53.238;10.448;2023-04-28T12:30:36;16.40;24.50
20498;DHT22;10407;53.238;10.448;2023-04-28T12:33:01;16.30;23.10
20498;DHT22;10407;53.238;10.448;2023-04-28T12:35:29;16.00;22.40
20498;DHT22;10407;53.238;10.448;2023-04-28T12:37:58;16.00;22.20
20498;DHT22;10407;53.238;10.448;2023-04-28T12:40:26;16.00;22.60
20498;DHT22;10407;53.238;10.448;2023-04-28T12:42:53;16.10;23.40
20498;DHT22;10407;53.238;10.448;2023-04-28T12:45:22;16.10;23.60
20498;DHT22;10407;53.238;10.448;2023-04-28T12:47:49;15.80;23.60
20498;DHT22;10407;53.238;10.448;2023-04-28T12:50:17;15.80;23.50
20498;DHT22;10407;53.238;10.448;2023-04-28T12:52:45;16.00;23.90
20498;DHT22;10407;53.238;10.448;2023-04-28T12:55:13;15.70;23.50
20498;DHT22;10407;53.238;10.448;2023-04-28T12:57:40;15.70;23.20
20498;DHT22;10407;53.238;10.448;2023-04-28T13:00:08;15.70;24.50
20498;DHT22;10407;53.238;10.448;2023-04-28T13:02:36;15.70;24.50
20498;DHT22;10407;53.238;10.448;2023-04-28T13:05:05;15.90;24.50
20498;DHT22;10407;53.238;10.448;2023-04-28T13:07:33;15.80;24.60
20498;DHT22;10407;53.238;10.448;2023-04-28T13:10:01;15.40;25.30
20498;DHT22;10407;53.238;10.448;2023-04-28T13:12:28;15.40;25.10
20498;DHT22;10407;53.238;10.448;2023-04-28T13:14:56;15.50;25.40
20498;DHT22;10407;53.238;10.448;2023-04-28T13:17:23;15.60;25.20
20498;DHT22;10407;53.238;10.448;2023-04-28T13:19:52;15.60;25.60
20498;DHT22;10407;53.238;10.448;2023-04-28T13:22:20;15.60;25.40
20498;DHT22;10407;53.238;10.448;2023-04-28T13:24:47;15.70;26.00
20498;DHT22;10407;53.238;10.448;2023-04-28T13:27:15;15.70;26.20
20498;DHT22;10407;53.238;10.448;2023-04-28T13:29:42;15.60;26.20
20498;DHT22;10407;53.238;10.448;2023-04-28T13:32:10;15.70;26.30
20498;DHT22;10407;53.238;10.448;2023-04-28T13:34:37;15.70;26.80
20498;DHT22;10407;53.238;10.448;2023-04-28T13:37:05;15.70;27.20
20498;DHT22;10407;53.238;10.448;2023-04-28T13:39:33;15.80;26.00
20498;DHT22;10407;53.238;10.448;2023-04-28T13:42:00;15.80;25.40
20498;DHT22;10407;53.238;10.448;2023-04-28T13:44:28;15.90;26.80
20498;DHT22;10407;53.238;10.448;2023-04-28T13:46:55;15.60;26.20
20498;DHT22;10407;53.238;10.448;2023-04-28T13:49:23;15.70;27.00
20498;DHT22;10407;53.238;10.448;2023-04-28T13:51:51;15.60;26.60
20498;DHT22;10407;53.238;10.448;2023-04-28T13:54:18;15.80;26.30
20498;DHT22;10407;53.238;10.448;2023-04-28T13:56:46;15.70;26.90
20498;DHT22;10407;53.238;10.448;2023-04-28T13:59:14;15.60;27.40
20498;DHT22;10407;53.238;10.448;2023-04-28T14:01:42;15.50;27.10
20498;DHT22;10407;53.238;10.448;2023-04-28T14:04:09;15.40;26.40
20498;DHT22;10407;53.238;10.448;2023-04-28T14:06:37;15.30;26.30
20498;DHT22;10407;53.238;10.448;2023-04-28T14:09:05;15.10;26.30
20498;DHT22;10407;53.238;10.448;2023-04-28T14:11:32;15.20;27.00
20498;DHT22;10407;53.238;10.448;2023-04-28T14:14:00;15.20;27.60
20498;DHT22;10407;53.238;10.448;2023-04-28T14:16:27;15.20;28.20
20498;DHT22;10407;53.238;10.448;2023-04-28T14:18:56;15.30;27.80
20498;DHT22;10407;53.238;10.448;2023-04-28T14:21:25;15.00;28.00
20498;DHT22;10407;53.238;10.448;2023-04-28T14:23:52;15.10;28.80
20498;DHT22;10407;53.238;10.448;2023-04-28T14:26:20;15.30;28.00
20498;DHT22;10407;53.238;10.448;2023-04-28T14:28:49;15.20;29.30
20498;DHT22;10407;53.238;10.448;2023-04-28T14:31:16;15.20;29.00
20498;DHT22;10407;53.238;10.448;2023-04-28T14:33:45;15.30;28.80
20498;DHT22;10407;53.238;10.448;2023-04-28T14:36:12;15.50;29.00
20498;DHT22;10407;53.238;10.448;2023-04-28T14:38:40;15.40;28.90
20498;DHT22;10407;53.238;10.448;2023-04-28T14:41:07;15.30;28.00
20498;DHT22;10407;53.238;10.448;2023-04-28T14:43:35;15.10;28.10
20498;DHT22;10407;53.238;10.448;2023-04-28T14:46:03;15.20;28.40
20498;DHT22;10407;53.238;10.448;2023-04-28T14:48:31;15.30;28.80
20498;DHT22;10407;53.238;10.448;2023-04-28T14:50:59;15.10;28.40
20498;DHT22;10407;53.238;10.448;2023-04-28T14:53:26;15.00;28.60
20498;DHT22;10407;53.238;10.448;2023-04-28T14:55:55;14.90;28.80
20498;DHT22;10407;53.238;10.448;2023-04-28T14:58:24;15.00;29.30
20498;DHT22;10407;53.238;10.448;2023-04-28T15:00:52;15.10;29.30
20498;DHT22;10407;53.238;10.448;2023-04-28T15:03:20;15.10;29.70
20498;DHT22;10407;53.238;10.448;2023-04-28T15:05:47;15.20;29.90
20498;DHT22;10407;53.238;10.448;2023-04-28T15:08:15;14.90;29.50
20498;DHT22;10407;53.238;10.448;2023-04-28T15:10:42;14.90;30.20
20498;DHT22;10407;53.238;10.448;2023-04-28T15:13:10;14.90;30.10
20498;DHT22;10407;53.238;10.448;2023-04-28T15:18:00;14.90;30.70
20498;DHT22;10407;53.238;10.448;2023-04-28T15:20:30;14.80;31.50
20498;DHT22;10407;53.238;10.448;2023-04-28T15:22:59;14.90;32.60
20498;DHT22;10407;53.238;10.448;2023-04-28T15:25:26;14.80;32.80
20498;DHT22;10407;53.238;10.448;2023-04-28T15:27:54;14.80;33.30
20498;DHT22;10407;53.238;10.448;2023-04-28T15:30:22;14.70;33.20
20498;DHT22;10407;53.238;10.448;2023-04-28T15:32:49;14.80;33.70
20498;DHT22;10407;53.238;10.448;2023-04-28T15:35:17;14.70;34.50
20498;DHT22;10407;53.238;10.448;2023-04-28T15:37:46;14.70;35.60
20498;DHT22;10407;53.238;10.448;2023-04-28T15:40:15;14.70;36.60
20498;DHT22;10407;53.238;10.448;2023-04-28T15:42:43;14.70;37.90
20498;DHT22;10407;53.238;10.448;2023-04-28T15:45:13;14.60;38.20
20498;DHT22;10407;53.238;10.448;2023-04-28T15:47:42;14.60;38.50
20498;DHT22;10407;53.238;10.448;2023-04-28T15:50:10;14.70;38.90